Time;durP1;ratioP1;P1;durP2;ratioP2;P2;SDS_P1;SDS_P2;PMS_P1;PMS_P2;Temp;Humidity;BMP_temperature;BMP_pressure;BME280_temperature;BME280_humidity;BME280_pressure;Samples;Min_cycle;Max_cycle;Signal;HPM_P1;HPM_P2
2023/08/12 00:00:53;;;;;;;13.17;7.63;;;;;;;20.76;75.32;100892.53;5017218;28;20864;-58
2023/08/12 00:03:25;;;;;;;12.47;7.67;;;;;;;20.33;73.88;100881.28;5043611;28;20504;-57
2023/08/12 00:05:57;;;;;;;12.70;7.23;;;;;;;20.21;74.02;100878.25;5033756;28;20287;-57
2023/08/12 00:08:27;;;;;;;11.43;7.20;;;;;;;20.21;74.48;100878.25;5038033;28;20372;-57
2023/08/12 00:10:58;;;;;;;10.80;6.50;;;;;;;20.43;72.62;100882.56;5015900;28;20286;-55
2023/08/12 00:13:29;;;;;;;12.03;6.43;;;;;;;20.48;71.54;100880.56;5044411;28;20270;-57
2023/08/12 00:16:00;;;;;;;13.80;7.00;;;;;;;20.56;75.00;100870.44;5033267;28;20271;-57
2023/08/12 00:18:36;;;;;;;9.00;6.17;;;;;;;20.65;72.32;100874.47;5037813;28;20286;-57
2023/08/12 00:21:09;;;;;;;10.23;6.47;;;;;;;20.55;71.76;100860.78;5016516;28;20288;-59
2023/08/12 00:23:42;;;;;;;11.37;6.87;;;;;;;20.94;74.32;100862.38;5026841;28;20366;-55
2023/08/12 00:26:13;;;;;;;12.40;6.93;;;;;;;21.11;69.58;100881.00;5019818;28;20885;-58
2023/08/12 00:28:43;;;;;;;15.13;7.10;;;;;;;21.39;72.65;100878.75;5022137;28;20370;-54
2023/08/12 00:31:14;;;;;;;13.10;6.97;;;;;;;21.44;71.40;100877.63;4995002;28;20628;-56
2023/08/12 00:33:46;;;;;;;11.00;6.47;;;;;;;21.84;72.04;100880.84;5004717;28;20292;-57
2023/08/12 00:36:17;;;;;;;11.23;6.50;;;;;;;21.96;73.47;100869.50;4994873;28;20362;-56
2023/08/12 00:38:47;;;;;;;10.70;6.20;;;;;;;21.89;70.42;100861.94;5017683;28;20684;-56
2023/08/12 00:41:18;;;;;;;11.37;6.60;;;;;;;21.79;72.59;100866.91;5023898;28;20472;-58
2023/08/12 00:43:48;;;;;;;12.63;6.20;;;;;;;21.69;72.44;100876.31;5029905;28;20275;-59
2023/08/12 00:46:19;;;;;;;10.47;6.03;;;;;;;21.65;72.67;100866.78;5022002;28;20052;-57
2023/08/12 00:48:51;;;;;;;10.30;5.87;;;;;;;21.84;73.09;100864.88;5025931;28;20064;-55
2023/08/12 00:51:22;;;;;;;10.63;5.97;;;;;;;21.97;72.82;100871.22;5018985;28;20053;-55
2023/08/12 00:53:56;;;;;;;9.57;6.07;;;;;;;21.82;72.32;100871.22;5016168;28;20136;-57
2023/08/12 00:56:28;;;;;;;12.77;6.87;;;;;;;21.75;72.40;100876.00;5024329;28;20037;-56
2023/08/12 00:58:59;;;;;;;13.97;6.80;;;;;;;21.74;71.92;100874.25;5013443;28;20045;-55
2023/08/12 01:01:29;;;;;;;11.03;6.20;;;;;;;21.57;69.86;100869.84;5023973;28;20049;-56
2023/08/12 01:04:02;;;;;;;11.70;6.60;;;;;;;21.57;72.56;100871.63;5023917;28;20045;-55
2023/08/12 01:06:33;;;;;;;9.30;6.33;;;;;;;21.54;71.16;100878.84;5024091;28;20045;-56
2023/08/12 01:09:05;;;;;;;11.07;6.60;;;;;;;21.22;69.12;100861.88;5014075;28;20482;-56
2023/08/12 01:11:41;;;;;;;10.50;6.73;;;;;;;20.94;71.22;100854.41;5023765;28;20048;-57
2023/08/12 01:14:18;;;;;;;11.30;6.97;;;;;;;20.87;71.27;100856.53;5013914;28;20066;-56
2023/08/12 01:16:52;;;;;;;10.13;6.87;;;;;;;20.90;70.30;100855.53;5023852;28;20129;-56
2023/08/12 01:19:34;;;;;;;10.20;6.97;;;;;;;20.90;69.83;100855.53;5015031;28;20068;-56
2023/08/12 01:22:06;;;;;;;16.67;8.13;;;;;;;20.83;69.56;100843.47;5017889;28;20126;-57
2023/08/12 01:24:39;;;;;;;11.80;7.53;;;;;;;21.09;69.27;100861.66;5027501;28;20268;-56
2023/08/12 01:27:12;;;;;;;12.90;7.70;;;;;;;20.85;68.56;100809.75;4999389;28;20292;-57
2023/08/12 01:29:44;;;;;;;14.17;7.80;;;;;;;21.11;69.08;100859.75;5014866;28;20172;-56
2023/08/12 01:32:23;;;;;;;13.80;7.83;;;;;;;21.07;68.29;100858.19;4997851;28;20090;-57
2023/08/12 01:34:57;;;;;;;;;;;;;;;21.01;69.54;100858.50;4998728;28;20296;-58
2023/08/12 01:37:31;;;;;;;16.07;8.40;;;;;;;20.97;70.58;100819.75;5008251;28;19924;-57
2023/08/12 01:40:04;;;;;;;11.03;7.13;;;;;;;21.20;67.38;100846.94;4998157;28;20280;-58
2023/08/12 01:42:36;;;;;;;12.57;7.53;;;;;;;21.36;67.67;100853.16;5007776;28;20299;-58
2023/08/12 01:45:08;;;;;;;11.33;7.50;;;;;;;21.40;68.22;100848.59;5011613;28;20307;-57
2023/08/12 01:47:38;;;;;;;13.87;7.90;;;;;;;21.53;68.93;100839.88;5027143;28;20283;-58
2023/08/12 01:50:09;;;;;;;13.87;8.20;;;;;;;21.47;68.00;100844.69;5016998;28;20282;-57
2023/08/12 01:52:40;;;;;;;12.97;8.20;;;;;;;21.44;69.60;100835.06;5026835;28;20300;-56
2023/08/12 01:55:12;;;;;;;14.10;7.87;;;;;;;21.93;71.88;100836.88;5016888;28;20084;-58
2023/08/12 01:57:42;;;;;;;11.47;7.47;;;;;;;22.26;70.35;100836.00;5023592;28;20279;-57
2023/08/12 02:00:13;;;;;;;11.83;8.00;;;;;;;22.38;66.29;100838.81;5016052;28;20296;-56
2023/08/12 02:02:45;;;;;;;13.53;7.70;;;;;;;22.43;66.80;100840.38;5029122;28;20053;-58
2023/08/12 02:05:17;;;;;;;14.00;9.53;;;;;;;22.11;64.14;100772.00;5032532;28;20127;-56
2023/08/12 02:07:47;;;;;;;15.20;8.43;;;;;;;22.35;67.64;100844.31;5028504;28;20049;-57
2023/08/12 02:10:19;;;;;;;10.83;7.20;;;;;;;22.35;64.46;100827.50;5023831;28;20045;-57
2023/08/12 02:12:50;;;;;;;16.27;8.10;;;;;;;22.46;66.44;100827.72;5040427;28;20613;-56
2023/08/12 02:15:21;;;;;;;12.63;7.67;;;;;;;22.24;64.46;100833.44;5025147;28;20036;-57
2023/08/12 02:17:51;;;;;;;18.83;8.90;;;;;;;22.09;64.48;100831.56;5024778;28;20065;-58
2023/08/12 02:20:22;;;;;;;13.03;8.57;;;;;;;21.68;64.14;100813.41;5025746;28;20072;-57
2023/08/12 02:22:52;;;;;;;14.33;8.27;;;;;;;21.35;65.15;100819.56;5031845;28;20148;-57
2023/08/12 02:25:24;;;;;;;15.50;8.73;;;;;;;21.18;67.33;100822.25;5045688;28;20040;-56
2023/08/12 02:27:55;;;;;;;14.90;7.93;;;;;;;21.42;69.41;100826.31;5034828;28;20094;-56
2023/08/12 02:30:25;;;;;;;15.00;9.10;;;;;;;21.89;70.17;100820.25;5044593;28;20052;-57
2023/08/12 02:32:56;;;;;;;14.47;9.30;;;;;;;22.02;68.74;100816.91;5034961;28;20126;-57
2023/08/12 02:35:26;;;;;;;15.30;8.70;;;;;;;22.00;66.77;100816.13;5044977;28;20053;-58
2023/08/12 02:37:57;;;;;;;12.73;8.13;;;;;;;22.05;68.11;100820.25;5034210;28;20139;-56
2023/08/12 02:40:29;;;;;;;16.23;9.03;;;;;;;22.05;66.04;100816.75;5036361;28;20052;-58
2023/08/12 02:43:00;;;;;;;14.93;9.23;;;;;;;21.75;66.11;100817.47;5019311;28;20041;-56
2023/08/12 02:45:31;;;;;;;12.90;8.23;;;;;;;21.73;67.38;100808.72;5032096;28;20040;-58
2023/08/12 02:48:01;;;;;;;13.97;8.77;;;;;;;21.74;66.67;100810.41;5018313;28;20036;-57
2023/08/12 02:50:32;;;;;;;12.27;7.83;;;;;;;21.88;67.02;100813.19;5031216;28;20048;-57
2023/08/12 02:53:02;;;;;;;17.97;9.70;;;;;;;21.91;66.69;100807.69;5021094;28;20149;-59
2023/08/12 02:55:34;;;;;;;12.80;8.30;;;;;;;22.11;68.22;100803.06;5031679;28;20950;-58
2023/08/12 02:58:05;;;;;;;13.10;8.63;;;;;;;22.24;68.04;100819.25;5001951;28;20064;-58
2023/08/12 03:00:36;;;;;;;14.60;9.10;;;;;;;22.38;65.58;100814.84;5011078;28;20506;-58
2023/08/12 03:03:07;;;;;;;12.87;8.63;;;;;;;22.66;65.95;100810.59;5001066;28;20351;-59
2023/08/12 03:05:37;;;;;;;12.00;7.93;;;;;;;22.77;62.22;100802.84;5010649;28;20041;-58
2023/08/12 03:08:10;;;;;;;14.53;8.47;;;;;;;22.78;62.78;100807.22;5000885;28;20136;-57
2023/08/12 03:10:43;;;;;;;15.90;8.47;;;;;;;22.85;62.98;100794.41;5011277;28;20342;-58
2023/08/12 03:13:13;;;;;;;11.57;7.63;;;;;;;22.96;64.02;100801.75;5001488;28;20053;-58
2023/08/12 03:15:44;;;;;;;11.27;7.13;;;;;;;22.76;63.69;100739.84;5010186;28;20583;-57
2023/08/12 03:18:14;;;;;;;13.33;7.90;;;;;;;23.14;63.33;100784.72;5001044;28;20049;-58
2023/08/12 03:20:45;;;;;;;12.00;7.27;;;;;;;23.05;61.34;100785.25;5011026;28;20068;-58
2023/08/12 03:23:17;;;;;;;10.27;7.47;;;;;;;23.20;61.95;100787.00;5000414;28;20053;-57
2023/08/12 03:25:50;;;;;;;13.50;8.13;;;;;;;23.24;59.86;100780.53;5010352;28;20179;-59
2023/08/12 03:28:21;;;;;;;12.13;8.00;;;;;;;23.12;59.95;100781.28;5021839;28;20076;-59
2023/08/12 03:30:55;;;;;;;13.87;7.33;;;;;;;23.16;63.17;100777.47;5027476;28;20064;-58
2023/08/12 03:33:25;;;;;;;15.63;7.37;;;;;;;23.27;63.40;100767.97;5030912;28;20525;-58
2023/08/12 03:35:56;;;;;;;11.77;7.40;;;;;;;23.34;62.07;100774.63;5018404;28;20104;-58
2023/08/12 03:38:26;;;;;;;11.10;7.07;;;;;;;23.28;59.59;100775.00;5030574;28;20139;-57
2023/08/12 03:40:58;;;;;;;11.93;7.53;;;;;;;23.17;59.26;100776.53;5019882;28;20045;-58
2023/08/12 03:43:29;;;;;;;11.27;7.33;;;;;;;23.22;62.52;100771.78;5029728;28;20460;-58
2023/08/12 03:46:00;;;;;;;11.60;7.13;;;;;;;23.25;63.20;100766.25;5020316;28;20044;-59
2023/08/12 03:48:30;;;;;;;12.57;7.00;;;;;;;23.32;62.94;100771.22;5029540;28;20056;-58
2023/08/12 03:51:01;;;;;;;9.87;6.43;;;;;;;23.37;62.78;100769.13;5019503;28;20109;-57
2023/08/12 03:53:31;;;;;;;12.87;6.87;;;;;;;23.18;60.24;100764.91;5030021;28;20121;-59
2023/08/12 03:56:04;;;;;;;11.90;9.13;;;;;;;22.98;60.33;100763.44;5019152;28;20060;-59
2023/08/12 03:58:36;;;;;;;11.80;6.57;;;;;;;22.97;62.32;100755.53;5028078;28;20550;-59
2023/08/12 04:01:07;;;;;;;10.90;6.77;;;;;;;23.09;62.03;100768.16;5019982;28;20042;-57
2023/08/12 04:03:37;;;;;;;12.80;7.17;;;;;;;23.10;61.57;100777.84;5028974;28;20049;-58
2023/08/12 04:06:08;;;;;;;11.17;6.30;;;;;;;23.16;61.01;100769.47;5018385;28;20060;-58
2023/08/12 04:08:41;;;;;;;12.37;6.70;;;;;;;23.21;60.85;100772.72;5029334;28;20139;-58
2023/08/12 04:11:13;;;;;;;11.63;6.83;;;;;;;23.44;62.36;100765.97;5020374;28;20062;-59
2023/08/12 04:13:44;;;;;;;9.40;6.17;;;;;;;23.56;58.29;100766.16;5029339;28;20036;-58
2023/08/12 04:16:15;;;;;;;10.50;7.00;;;;;;;23.51;58.87;100763.75;5019874;28;20036;-59
2023/08/12 04:18:45;;;;;;;11.47;7.30;;;;;;;23.44;59.92;100759.78;5028790;28;20747;-59
2023/08/12 04:21:16;;;;;;;10.07;6.90;;;;;;;23.53;60.57;100753.84;5018982;28;20049;-59
2023/08/12 04:23:46;;;;;;;11.27;7.27;;;;;;;23.41;59.59;100754.63;5028657;28;20482;-58
2023/08/12 04:26:18;;;;;;;11.67;6.03;;;;;;;23.41;61.54;100741.28;5019770;28;20502;-58
2023/08/12 04:28:49;;;;;;;10.33;6.90;;;;;;;23.45;59.98;100740.16;5029357;28;20061;-58
2023/08/12 04:31:20;;;;;;;13.20;6.93;;;;;;;23.47;58.31;100740.91;5019500;28;20049;-58
2023/08/12 04:33:52;;;;;;;10.53;6.57;;;;;;;23.39;58.32;100735.22;5028050;28;20048;-59
2023/08/12 04:36:23;;;;;;;11.83;6.53;;;;;;;23.20;58.92;100731.00;5029774;28;20478;-58
2023/08/12 04:38:53;;;;;;;11.07;6.90;;;;;;;23.13;57.91;100729.66;5020256;28;20075;-59
2023/08/12 04:41:26;;;;;;;14.27;7.97;;;;;;;22.98;58.95;100733.28;5031004;28;20151;-58
2023/08/12 04:43:56;;;;;;;10.47;6.50;;;;;;;23.14;59.06;100731.41;5017427;28;20053;-59
2023/08/12 04:46:27;;;;;;;10.20;6.50;;;;;;;23.11;59.68;100726.22;5024737;28;20130;-59
2023/08/12 04:48:58;;;;;;;9.43;6.60;;;;;;;23.30;60.19;100719.78;4991237;28;20049;-59
2023/08/12 04:51:29;;;;;;;11.23;6.33;;;;;;;23.40;58.80;100713.78;5000011;28;20209;-59
2023/08/12 04:54:00;;;;;;;11.80;6.67;;;;;;;23.42;59.69;100719.03;4991775;28;20529;-58
2023/08/12 04:56:33;;;;;;;11.07;6.60;;;;;;;23.47;59.25;100716.91;4999988;28;20476;-58
2023/08/12 04:59:04;;;;;;;11.03;6.63;;;;;;;23.41;57.53;100702.16;4994332;28;20040;-59
2023/08/12 05:01:34;;;;;;;8.90;6.87;;;;;;;23.21;58.22;100706.09;5000738;28;20072;-57
2023/08/12 05:04:07;;;;;;;9.53;6.47;;;;;;;23.38;58.97;100707.66;4994329;28;20056;-58
2023/08/12 05:06:37;;;;;;;11.70;7.10;;;;;;;23.31;59.06;100700.16;5003656;28;20527;-58
2023/08/12 05:09:10;;;;;;;10.30;6.00;;;;;;;23.22;56.91;100697.13;4992397;28;20577;-58
2023/08/12 05:11:42;;;;;;;9.73;6.80;;;;;;;23.33;58.80;100698.25;5004152;28;20049;-59
2023/08/12 05:14:12;;;;;;;12.70;6.87;;;;;;;23.25;57.96;100702.25;4994125;28;20065;-59
2023/08/12 05:16:42;;;;;;;14.43;7.10;;;;;;;23.29;59.02;100702.06;4999321;28;20053;-58
2023/08/12 05:19:13;;;;;;;12.30;7.23;;;;;;;23.36;58.57;100692.72;4985187;28;20053;-59
2023/08/12 05:21:43;;;;;;;9.40;6.93;;;;;;;23.42;59.28;100697.69;5000281;28;20053;-58
2023/08/12 05:24:14;;;;;;;11.63;6.90;;;;;;;23.41;57.65;100703.94;4994439;28;20148;-58
2023/08/12 05:26:46;;;;;;;8.87;6.23;;;;;;;23.46;57.85;100692.06;5001443;28;20069;-58
2023/08/12 05:29:16;;;;;;;10.40;6.83;;;;;;;23.50;58.75;100689.19;4993054;28;20148;-57
2023/08/12 05:31:47;;;;;;;11.53;6.97;;;;;;;23.52;58.83;100693.47;5006733;28;20095;-58
2023/08/12 05:34:17;;;;;;;11.90;7.53;;;;;;;23.57;57.91;100687.84;4995780;28;20135;-59
2023/08/12 05:36:48;;;;;;;13.63;8.00;;;;;;;23.49;57.65;100688.34;5017368;28;20061;-59
2023/08/12 05:39:18;;;;;;;11.03;7.90;;;;;;;23.48;58.29;100691.94;5009194;28;20049;-59
2023/08/12 05:41:52;;;;;;;11.47;7.73;;;;;;;23.43;56.48;100694.06;5016971;28;20130;-58
2023/08/12 05:44:22;;;;;;;13.77;8.30;;;;;;;23.30;55.98;100693.13;5009983;28;20140;-59
2023/08/12 05:46:53;;;;;;;12.57;7.60;;;;;;;23.29;57.38;100692.28;5012919;28;20080;-58
2023/08/12 05:49:26;;;;;;;12.03;7.17;;;;;;;23.36;57.27;100692.72;5023211;28;20064;-60
2023/08/12 05:51:57;;;;;;;12.77;8.00;;;;;;;23.17;56.33;100693.88;5012166;28;20131;-58
2023/08/12 05:54:27;;;;;;;13.57;7.67;;;;;;;23.13;56.28;100697.69;5022483;28;20494;-57
2023/08/12 05:57:00;;;;;;;15.23;8.07;;;;;;;23.17;56.74;100693.03;5011442;28;20130;-59
2023/08/12 05:59:30;;;;;;;14.67;7.90;;;;;;;23.06;56.11;100696.34;5021833;28;20167;-58
2023/08/12 06:02:01;;;;;;;11.93;8.43;;;;;;;23.00;55.40;100696.72;5011311;28;21081;-58
2023/08/12 06:04:32;;;;;;;13.93;8.63;;;;;;;22.94;56.92;100697.06;5022572;28;20519;-59
2023/08/12 06:07:02;;;;;;;12.20;7.93;;;;;;;22.92;56.86;100693.66;4995432;28;20530;-57
2023/08/12 06:09:34;;;;;;;12.30;7.97;;;;;;;22.86;55.45;100691.34;5020023;28;20049;-57
2023/08/12 06:12:08;;;;;;;13.03;8.93;;;;;;;22.78;57.41;100698.00;5011927;28;20060;-57
2023/08/12 06:14:40;;;;;;;11.50;8.03;;;;;;;22.73;57.15;100694.75;5022211;28;20480;-59
2023/08/12 06:17:11;;;;;;;16.57;8.77;;;;;;;22.86;58.03;100694.00;5007446;28;20530;-59
2023/08/12 06:19:42;;;;;;;11.93;8.63;;;;;;;22.90;56.69;100695.56;5021956;28;20111;-60
2023/08/12 06:22:12;;;;;;;18.97;10.60;;;;;;;22.80;56.50;100696.09;5008310;28;20449;-58
2023/08/12 06:24:43;;;;;;;13.23;9.23;;;;;;;22.68;55.59;100691.50;5015451;28;20045;-60
2023/08/12 06:27:20;;;;;;;13.97;9.57;;;;;;;22.50;57.23;100684.63;5011660;28;20047;-60
2023/08/12 06:29:51;;;;;;;16.47;10.47;;;;;;;22.66;59.26;100682.75;5021382;28;20462;-61
2023/08/12 06:32:22;;;;;;;14.97;9.40;;;;;;;22.85;58.92;100684.31;5001736;28;20041;-59
2023/08/12 06:34:54;;;;;;;17.40;9.93;;;;;;;22.87;58.36;100675.28;5011709;28;20053;-59
2023/08/12 06:37:26;;;;;;;17.57;10.40;;;;;;;22.98;57.01;100685.31;5022400;28;20560;-58
2023/08/12 06:39:58;;;;;;;16.23;10.60;;;;;;;22.63;55.46;100645.66;4989607;28;20114;-59
2023/08/12 06:42:30;;;;;;;15.67;10.47;;;;;;;22.79;57.17;100683.75;5012186;28;20359;-59
2023/08/12 06:45:03;;;;;;;17.60;10.37;;;;;;;22.84;58.01;100662.16;5010999;28;20064;-58
2023/08/12 06:47:38;;;;;;;15.80;10.20;;;;;;;22.96;57.17;100687.16;5021383;28;20144;-58
2023/08/12 06:50:09;;;;;;;16.47;10.83;;;;;;;22.89;55.15;100683.16;5006254;28;20554;-59
2023/08/12 06:52:40;;;;;;;18.87;11.97;;;;;;;22.77;56.69;100688.31;5021645;28;20041;-59
2023/08/12 06:55:14;;;;;;;17.23;11.93;;;;;;;22.75;55.41;100687.53;5011745;28;20055;-61
2023/08/12 06:57:53;;;;;;;17.50;11.70;;;;;;;22.66;56.57;100682.75;5013187;28;20048;-61
2023/08/12 07:00:23;;;;;;;15.07;11.30;;;;;;;22.65;55.56;100686.38;4997299;28;20437;-61
2023/08/12 07:02:54;;;;;;;18.50;12.43;;;;;;;22.55;56.46;100690.53;5011547;28;20135;-60
2023/08/12 07:05:26;;;;;;;18.37;11.90;;;;;;;22.53;56.77;100684.44;5021152;28;20106;-58
2023/08/12 07:07:57;;;;;;;20.17;13.07;;;;;;;22.57;57.17;100678.00;5001365;28;20136;-59
2023/08/12 07:10:29;;;;;;;21.63;12.77;;;;;;;22.61;57.23;100679.50;5021847;28;20053;-58
2023/08/12 07:13:05;;;;;;;21.03;13.60;;;;;;;22.28;56.74;100640.63;5011168;28;20492;-60
2023/08/12 07:15:36;;;;;;;18.13;13.00;;;;;;;22.48;57.35;100678.53;5021018;28;20049;-60
2023/08/12 07:18:07;;;;;;;21.20;13.50;;;;;;;22.38;56.66;100681.75;5005156;28;20059;-57
2023/08/12 07:20:38;;;;;;;22.70;14.27;;;;;;;22.28;56.99;100672.59;5017690;28;20142;-58
2023/08/12 07:23:10;;;;;;;18.47;13.10;;;;;;;22.20;56.79;100680.16;5009505;28;20053;-59
2023/08/12 07:25:42;;;;;;;22.97;13.63;;;;;;;22.13;57.57;100678.78;5004060;28;20543;-58
2023/08/12 07:28:15;;;;;;;20.93;14.20;;;;;;;21.98;56.30;100689.34;5006463;28;20077;-59
2023/08/12 07:30:46;;;;;;;20.93;13.83;;;;;;;21.84;57.10;100683.09;5010395;28;20053;-59
2023/08/12 07:33:19;;;;;;;22.30;13.97;;;;;;;21.75;57.12;100684.47;5000747;28;20049;-59
2023/08/12 07:35:50;;;;;;;20.70;13.80;;;;;;;21.49;58.30;100667.31;5019089;28;20158;-57
2023/08/12 07:38:23;;;;;;;21.73;14.20;;;;;;;21.62;57.28;100694.94;4992630;28;20514;-60
2023/08/12 07:40:54;;;;;;;20.70;14.17;;;;;;;21.35;57.82;100670.72;4993246;28;20292;-60
2023/08/12 07:43:28;;;;;;;20.87;13.90;;;;;;;21.35;58.65;100691.97;5021722;28;20140;-60
2023/08/12 07:45:59;;;;;;;21.90;14.30;;;;;;;21.27;59.10;100694.19;5009880;28;20379;-60
2023/08/12 07:48:43;;;;;;;20.73;13.97;;;;;;;21.32;60.41;100698.31;5016966;28;20049;-57
2023/08/12 07:51:13;;;;;;;22.60;15.17;;;;;;;21.32;60.27;100697.47;5010113;28;20288;-56
2023/08/12 07:53:44;;;;;;;20.00;14.13;;;;;;;21.33;60.05;100704.47;5020366;28;20280;-59
2023/08/12 07:56:15;;;;;;;21.47;14.37;;;;;;;21.24;59.44;100694.34;5004800;28;20522;-58
2023/08/12 07:58:47;;;;;;;20.23;14.20;;;;;;;21.17;59.33;100698.25;5020039;28;20479;-61
2023/08/12 08:01:21;;;;;;;22.77;15.23;;;;;;;21.09;60.24;100696.91;4996936;28;20394;-59
2023/08/12 08:03:53;;;;;;;22.83;14.63;;;;;;;21.04;59.00;100688.31;4993094;28;20288;-59
2023/08/12 08:06:25;;;;;;;25.23;15.87;;;;;;;20.91;60.12;100703.16;5011551;28;20304;-59
2023/08/12 08:09:02;;;;;;;25.03;14.87;;;;;;;20.88;61.29;100687.41;5009825;28;20539;-58
2023/08/12 08:11:34;;;;;;;23.50;14.97;;;;;;;20.62;60.52;100656.91;5019968;28;20357;-58
2023/08/12 08:14:06;;;;;;;24.63;15.37;;;;;;;20.78;60.14;100692.34;5009847;28;20712;-59
2023/08/12 08:16:40;;;;;;;24.30;15.60;;;;;;;20.67;61.07;100695.56;5019962;28;20379;-58
2023/08/12 08:19:12;;;;;;;24.20;15.47;;;;;;;20.48;61.00;100689.44;5011170;28;21292;-59
2023/08/12 08:21:43;;;;;;;24.03;15.30;;;;;;;20.12;61.87;100639.94;5020056;28;20288;-59
2023/08/12 08:24:14;;;;;;;28.03;18.03;;;;;;;20.33;62.75;100684.91;5009304;28;20283;-59
2023/08/12 08:26:46;;;;;;;27.27;16.63;;;;;;;20.29;62.74;100683.31;5016329;28;20305;-58
2023/08/12 08:29:19;;;;;;;24.70;16.67;;;;;;;20.05;62.19;100654.44;5013012;28;20346;-59
2023/08/12 08:31:50;;;;;;;30.33;17.00;;;;;;;20.06;63.33;100666.75;5005467;28;20291;-59
2023/08/12 08:34:21;;;;;;;29.50;17.43;;;;;;;20.08;62.84;100670.19;5014026;28;20370;-60
2023/08/12 08:36:52;;;;;;;24.23;16.70;;;;;;;20.03;63.10;100672.22;5014978;28;20295;-59
2023/08/12 08:39:26;;;;;;;27.07;17.47;;;;;;;19.96;63.39;100665.50;5022333;28;21454;-56
2023/08/12 08:41:58;;;;;;;30.97;18.47;;;;;;;19.43;63.31;100608.78;5013795;28;20311;-58
2023/08/12 08:44:33;;;;;;;30.70;18.07;;;;;;;19.83;64.65;100666.09;5023749;28;20290;-59
2023/08/12 08:47:06;;;;;;;28.30;17.27;;;;;;;19.78;64.82;100673.41;5004851;28;20401;-58
2023/08/12 08:49:40;;;;;;;27.80;18.93;;;;;;;19.51;65.01;100634.94;5023822;28;20337;-57
2023/08/12 08:52:11;;;;;;;30.17;19.50;;;;;;;19.63;65.06;100668.81;5013852;28;20273;-59
2023/08/12 08:54:44;;;;;;;29.80;19.27;;;;;;;19.52;65.50;100649.88;5023938;28;20279;-57
2023/08/12 08:57:22;;;;;;;32.57;19.80;;;;;;;19.59;65.92;100668.09;5003863;28;20275;-58
2023/08/12 09:00:27;;;;;;;33.00;19.40;;;;;;;19.55;65.91;100669.19;5012780;28;20271;-57
2023/08/12 09:03:35;;;;;;;29.52;18.48;;;;;;;19.46;66.81;100672.25;5013888;28;20272;-58
2023/08/12 09:06:22;;;;;;;32.13;19.97;;;;;;;19.29;66.04;100665.06;4980769;28;20053;-59
2023/08/12 09:08:54;;;;;;;30.80;18.97;;;;;;;19.17;66.54;100669.16;5012533;28;20390;-58
2023/08/12 09:11:40;;;;;;;30.13;19.10;;;;;;;19.07;66.43;100669.63;5023326;28;20279;-58
2023/08/12 09:14:11;;;;;;;29.33;19.80;;;;;;;18.98;66.39;100660.31;5012596;28;21771;-58
2023/08/12 09:16:47;;;;;;;29.83;19.77;;;;;;;18.79;66.25;100649.69;5022818;28;20296;-58
2023/08/12 09:19:25;;;;;;;33.37;19.83;;;;;;;18.75;66.98;100650.75;5013478;28;20333;-59
2023/08/12 09:22:00;;;;;;;30.90;19.08;;;;;;;18.64;67.82;100667.06;5012526;28;20373;-59
2023/08/12 09:24:36;;;;;;;29.90;18.67;;;;;;;18.58;68.17;100672.63;5023472;28;20484;-55
2023/08/12 09:27:12;;;;;;;29.43;18.63;;;;;;;18.29;68.06;100650.06;5012773;28;20378;-58
2023/08/12 09:29:45;;;;;;;31.77;17.60;;;;;;;18.17;68.82;100672.63;5021402;28;20286;-60
2023/08/12 09:32:25;;;;;;;24.60;15.80;;;;;;;17.93;69.55;100678.91;4987553;28;20286;-59
2023/08/12 09:35:18;;;;;;;29.33;16.83;;;;;;;17.69;70.49;100682.41;5012551;28;20103;-59
2023/08/12 09:37:55;;;;;;;29.20;18.40;;;;;;;17.45;71.48;100683.38;5020574;28;20287;-59
2023/08/12 09:40:27;;;;;;;30.73;16.43;;;;;;;17.34;75.97;100686.41;5006172;28;20731;-59
2023/08/12 09:43:07;;;;;;;23.53;15.13;;;;;;;17.19;81.61;100682.56;5012183;28;20357;-58
2023/08/12 09:45:41;;;;;;;26.23;15.70;;;;;;;17.03;86.32;100686.69;5021883;28;20288;-58
2023/08/12 09:48:19;;;;;;;26.33;15.27;;;;;;;16.85;88.04;100682.94;5013093;28;20297;-59
2023/08/12 09:51:05;;;;;;;25.90;15.10;;;;;;;16.68;90.39;100688.78;5011940;28;20595;-59
2023/08/12 09:53:45;;;;;;;27.50;15.60;;;;;;;16.56;93.06;100691.84;5022221;28;20288;-60
2023/08/12 09:56:21;;;;;;;26.90;14.37;;;;;;;16.39;94.92;100680.06;4990213;28;20280;-59
2023/08/12 09:58:57;;;;;;;25.83;15.10;;;;;;;16.23;96.75;100686.78;5019590;28;20291;-59
2023/08/12 10:01:33;;;;;;;23.73;14.20;;;;;;;16.11;98.28;100679.28;5021528;28;20280;-59
2023/08/12 10:08:01;;;;;;;27.02;14.95;;;;;;;15.94;100.00;100683.31;5010740;28;20749;-59
2023/08/12 10:18:00;;;;;;;28.80;14.97;;;;;;;15.66;100.00;100682.41;4997599;28;20741;-61
2023/08/12 10:20:48;;;;;;;22.67;13.35;;;;;;;15.64;100.00;100705.31;5018393;28;20278;-59
2023/08/12 10:23:25;;;;;;;25.43;14.57;;;;;;;15.57;100.00;100709.03;4997018;28;20126;-60
2023/08/12 10:26:10;;;;;;;25.93;15.07;;;;;;;15.35;100.00;100699.16;5006592;28;20376;-60
2023/08/12 10:28:47;;;;;;;29.67;15.17;;;;;;;15.34;100.00;100707.94;5002412;28;20273;-58
2023/08/12 10:31:33;;;;;;;29.88;14.63;;;;;;;15.03;100.00;100665.84;4986953;28;20318;-59
2023/08/12 10:34:13;;;;;;;25.33;14.07;;;;;;;15.12;100.00;100706.81;5011564;28;20267;-61
2023/08/12 10:37:06;;;;;;;25.07;15.10;;;;;;;15.02;100.00;100716.75;5010135;28;20307;-60
2023/08/12 10:40:07;;;;;;;25.90;15.33;;;;;;;15.00;100.00;100703.66;4974016;28;20307;-60
2023/08/12 10:42:49;;;;;;;26.23;14.25;;;;;;;14.76;100.00;100688.53;5021953;28;20349;-60
2023/08/12 10:45:47;;;;;;;23.90;14.00;;;;;;;14.83;100.00;100708.50;5005774;28;20053;-60
2023/08/12 10:48:42;;;;;;;21.97;13.33;;;;;;;14.41;100.00;100661.34;5011262;28;20284;-60
2023/08/12 10:51:19;;;;;;;25.33;13.90;;;;;;;14.75;100.00;100719.22;4985655;28;20283;-61
2023/08/12 10:53:52;;;;;;;25.33;14.80;;;;;;;14.75;100.00;100728.88;5018245;28;20379;-61
2023/08/12 11:00:29;;;;;;;26.60;14.27;;;;;;;14.57;100.00;100712.66;5045609;27;20138;-58
2023/08/12 11:07:15;;;;;;;22.00;14.03;;;;;;;14.45;100.00;100726.06;4966698;28;20296;-57
2023/08/12 11:10:30;;;;;;;23.83;14.07;;;;;;;14.46;100.00;100733.09;4984710;28;20288;-57
2023/08/12 11:16:56;;;;;;;29.93;15.20;;;;;;;14.20;100.00;100721.44;4995124;28;19929;-58
2023/08/12 11:19:31;;;;;;;26.17;14.57;;;;;;;14.15;100.00;100717.19;4968547;28;20564;-58
2023/08/12 11:22:12;;;;;;;22.83;14.37;;;;;;;14.05;100.00;100721.78;4969907;28;20350;-58
2023/08/12 11:24:51;;;;;;;28.47;15.50;;;;;;;14.03;100.00;100715.72;4995251;28;20292;-59
2023/08/12 11:27:45;;;;;;;;;;;;;;;14.02;100.00;100712.22;4985944;28;20278;-59
2023/08/12 11:30:21;;;;;;;26.57;14.03;;;;;;;13.92;100.00;100699.34;4983824;28;19972;-58
2023/08/12 11:33:20;;;;;;;27.70;15.55;;;;;;;13.53;100.00;100637.19;4984324;28;20046;-58
2023/08/12 11:36:04;;;;;;;26.83;14.93;;;;;;;13.93;100.00;100701.94;4991045;28;20049;-58
2023/08/12 11:38:36;;;;;;;24.50;14.27;;;;;;;13.92;100.00;100702.81;5033089;28;20302;-58
2023/08/12 11:41:20;;;;;;;25.98;14.95;;;;;;;13.96;100.00;100708.88;5019138;28;20049;-59
2023/08/12 11:43:56;;;;;;;26.10;13.80;;;;;;;13.46;100.00;100629.50;5028969;28;20187;-58
2023/08/12 11:46:38;;;;;;;24.77;14.13;;;;;;;13.57;100.00;100661.59;5044639;28;20435;-58
2023/08/12 11:49:27;;;;;;;25.47;14.33;;;;;;;13.76;100.00;100710.19;5034842;28;20294;-59
2023/08/12 11:52:04;;;;;;;25.83;13.98;;;;;;;13.69;100.00;100703.34;5021906;28;20374;-58
2023/08/12 11:54:38;;;;;;;24.80;12.87;;;;;;;13.66;100.00;100707.81;5042068;28;20463;-57
2023/08/12 11:57:11;;;;;;;23.17;14.50;;;;;;;13.63;100.00;100703.50;5045820;28;20684;-58
2023/08/12 12:00:18;;;;;;;30.00;15.05;;;;;;;13.61;100.00;100710.53;5056160;28;20052;-56
2023/08/12 12:02:53;;;;;;;27.77;14.82;;;;;;;13.47;100.00;100697.69;5025020;28;20053;-58
2023/08/12 12:05:33;;;;;;;24.25;14.18;;;;;;;13.46;100.00;100726.63;5040396;28;20074;-58
2023/08/12 12:08:17;;;;;;;30.93;14.53;;;;;;;13.44;100.00;100717.91;5045954;28;20135;-58